sensor_id;sensor_type;location;lat;lon;timestamp;pressure;altitude;pressure_sealevel;temperature;humidity
59873;BME280;50750;51.636;4.948;2024-02-26T00:02:08;99968.16;;;11.85;64.45
59873;BME280;50750;51.636;4.948;2024-02-26T00:04:36;99972.04;;;11.85;64.27
59873;BME280;50750;51.636;4.948;2024-02-26T00:07:04;99971.66;;;11.85;64.41
59873;BME280;50750;51.636;4.948;2024-02-26T00:09:32;99971.34;;;11.85;64.42
59873;BME280;50750;51.636;4.948;2024-02-26T00:12:02;99972.77;;;11.84;64.38
59873;BME280;50750;51.636;4.948;2024-02-26T00:14:31;99969.66;;;11.83;64.38
59873;BME280;50750;51.636;4.948;2024-02-26T00:16:59;99972.50;;;11.83;64.42
59873;BME280;50750;51.636;4.948;2024-02-26T00:19:26;99969.34;;;11.82;64.43
59873;BME280;50750;51.636;4.948;2024-02-26T00:21:54;99966.02;;;11.82;64.35
59873;BME280;50750;51.636;4.948;2024-02-26T00:24:22;99965.67;;;11.82;64.44
59873;BME280;50750;51.636;4.948;2024-02-26T00:26:50;99965.27;;;11.83;64.51
59873;BME280;50750;51.636;4.948;2024-02-26T00:29:21;99965.75;;;11.84;64.33
59873;BME280;50750;51.636;4.948;2024-02-26T00:31:49;99968.71;;;11.84;64.45
59873;BME280;50750;51.636;4.948;2024-02-26T00:34:16;99967.33;;;11.84;64.35
59873;BME280;50750;51.636;4.948;2024-02-26T00:36:44;99968.89;;;11.84;64.32
59873;BME280;50750;51.636;4.948;2024-02-26T00:39:12;99968.02;;;11.84;64.36
59873;BME280;50750;51.636;4.948;2024-02-26T00:41:40;99965.23;;;11.84;64.34
59873;BME280;50750;51.636;4.948;2024-02-26T00:44:08;99966.95;;;11.84;64.33
59873;BME280;50750;51.636;4.948;2024-02-26T00:46:36;99966.98;;;11.84;64.51
59873;BME280;50750;51.636;4.948;2024-02-26T00:49:03;99968.58;;;11.84;64.32
59873;BME280;50750;51.636;4.948;2024-02-26T00:51:31;99966.17;;;11.83;64.31
59873;BME280;50750;51.636;4.948;2024-02-26T00:53:59;99965.50;;;11.82;64.34
59873;BME280;50750;51.636;4.948;2024-02-26T00:56:26;99965.88;;;11.81;64.44
59873;BME280;50750;51.636;4.948;2024-02-26T00:58:54;99964.85;;;11.81;64.34
59873;BME280;50750;51.636;4.948;2024-02-26T01:01:21;99966.06;;;11.81;64.38
59873;BME280;50750;51.636;4.948;2024-02-26T01:03:49;99966.20;;;11.82;64.37
59873;BME280;50750;51.636;4.948;2024-02-26T01:06:17;99968.99;;;11.82;64.27
59873;BME280;50750;51.636;4.948;2024-02-26T01:08:44;99969.34;;;11.82;64.43
59873;BME280;50750;51.636;4.948;2024-02-26T01:11:12;99968.80;;;11.83;64.19
59873;BME280;50750;51.636;4.948;2024-02-26T01:13:39;99974.73;;;11.83;64.33
59873;BME280;50750;51.636;4.948;2024-02-26T01:16:07;99979.10;;;11.84;64.42
59873;BME280;50750;51.636;4.948;2024-02-26T01:18:35;99983.31;;;11.84;64.27
59873;BME280;50750;51.636;4.948;2024-02-26T01:21:03;99983.14;;;11.84;64.38
59873;BME280;50750;51.636;4.948;2024-02-26T01:23:33;99975.24;;;11.84;64.35
59873;BME280;50750;51.636;4.948;2024-02-26T01:26:01;99973.16;;;11.83;64.30
59873;BME280;50750;51.636;4.948;2024-02-26T01:28:30;99976.35;;;11.82;64.43
59873;BME280;50750;51.636;4.948;2024-02-26T01:30:58;99979.52;;;11.82;64.34
59873;BME280;50750;51.636;4.948;2024-02-26T01:33:27;99975.17;;;11.81;64.23
59873;BME280;50750;51.636;4.948;2024-02-26T01:35:54;99978.38;;;11.81;64.28
59873;BME280;50750;51.636;4.948;2024-02-26T01:38:22;99980.34;;;11.80;64.37
59873;BME280;50750;51.636;4.948;2024-02-26T01:40:50;99981.91;;;11.80;64.58
59873;BME280;50750;51.636;4.948;2024-02-26T01:43:17;99977.88;;;11.80;64.35
59873;BME280;50750;51.636;4.948;2024-02-26T01:45:45;99980.33;;;11.80;64.46
59873;BME280;50750;51.636;4.948;2024-02-26T01:48:13;99983.45;;;11.81;64.18
59873;BME280;50750;51.636;4.948;2024-02-26T01:50:41;99987.30;;;11.81;64.58
59873;BME280;50750;51.636;4.948;2024-02-26T01:53:09;99992.70;;;11.82;64.35
59873;BME280;50750;51.636;4.948;2024-02-26T01:55:37;99991.63;;;11.82;64.26
59873;BME280;50750;51.636;4.948;2024-02-26T01:58:06;99993.92;;;11.82;64.25
59873;BME280;50750;51.636;4.948;2024-02-26T02:00:34;99994.10;;;11.82;64.34
59873;BME280;50750;51.636;4.948;2024-02-26T02:03:02;99996.02;;;11.82;64.43
59873;BME280;50750;51.636;4.948;2024-02-26T02:05:31;99994.28;;;11.82;64.34
59873;BME280;50750;51.636;4.948;2024-02-26T02:07:59;99992.38;;;11.81;64.43
59873;BME280;50750;51.636;4.948;2024-02-26T02:10:27;99992.37;;;11.81;64.47
59873;BME280;50750;51.636;4.948;2024-02-26T02:12:55;99997.64;;;11.81;64.34
59873;BME280;50750;51.636;4.948;2024-02-26T02:15:23;100001.70;;;11.81;64.39
59873;BME280;50750;51.636;4.948;2024-02-26T02:17:51;99999.45;;;11.80;64.26
59873;BME280;50750;51.636;4.948;2024-02-26T02:20:19;99997.88;;;11.80;64.44
59873;BME280;50750;51.636;4.948;2024-02-26T02:22:47;99996.33;;;11.80;64.44
59873;BME280;50750;51.636;4.948;2024-02-26T02:25:15;99995.77;;;11.80;64.45
59873;BME280;50750;51.636;4.948;2024-02-26T02:27:43;100000.69;;;11.80;64.46
59873;BME280;50750;51.636;4.948;2024-02-26T02:30:12;100009.92;;;11.81;64.43
59873;BME280;50750;51.636;4.948;2024-02-26T02:32:40;100016.24;;;11.81;64.43
59873;BME280;50750;51.636;4.948;2024-02-26T02:35:09;100015.88;;;11.81;64.37
59873;BME280;50750;51.636;4.948;2024-02-26T02:37:36;100020.27;;;11.81;64.49
59873;BME280;50750;51.636;4.948;2024-02-26T02:40:08;100025.67;;;11.82;64.45
59873;BME280;50750;51.636;4.948;2024-02-26T02:42:36;100034.11;;;11.81;64.32
59873;BME280;50750;51.636;4.948;2024-02-26T02:45:05;100039.91;;;11.81;64.17
59873;BME280;50750;51.636;4.948;2024-02-26T02:47:36;100040.09;;;11.81;64.33
59873;BME280;50750;51.636;4.948;2024-02-26T02:50:06;100041.52;;;11.81;64.52
59873;BME280;50750;51.636;4.948;2024-02-26T02:52:34;100041.56;;;11.80;64.29
59873;BME280;50750;51.636;4.948;2024-02-26T02:55:02;100035.95;;;11.80;64.32
59873;BME280;50750;51.636;4.948;2024-02-26T02:57:30;100035.46;;;11.79;64.36
59873;BME280;50750;51.636;4.948;2024-02-26T02:59:58;100032.83;;;11.79;64.41
59873;BME280;50750;51.636;4.948;2024-02-26T03:02:25;100025.98;;;11.79;64.23
59873;BME280;50750;51.636;4.948;2024-02-26T03:04:53;100025.13;;;11.79;64.47
59873;BME280;50750;51.636;4.948;2024-02-26T03:07:21;100024.55;;;11.79;64.50
59873;BME280;50750;51.636;4.948;2024-02-26T03:09:48;100024.04;;;11.79;64.37
59873;BME280;50750;51.636;4.948;2024-02-26T03:12:16;100023.16;;;11.79;64.48
59873;BME280;50750;51.636;4.948;2024-02-26T03:14:45;100031.74;;;11.80;64.36
59873;BME280;50750;51.636;4.948;2024-02-26T03:17:12;100034.38;;;11.80;64.35
59873;BME280;50750;51.636;4.948;2024-02-26T03:19:40;100032.98;;;11.80;64.18
59873;BME280;50750;51.636;4.948;2024-02-26T03:22:08;100036.50;;;11.79;64.45
59873;BME280;50750;51.636;4.948;2024-02-26T03:24:36;100033.90;;;11.79;64.44
59873;BME280;50750;51.636;4.948;2024-02-26T03:27:04;100036.93;;;11.78;64.40
59873;BME280;50750;51.636;4.948;2024-02-26T03:29:36;100037.13;;;11.77;64.27
59873;BME280;50750;51.636;4.948;2024-02-26T03:32:06;100039.95;;;11.77;64.47
59873;BME280;50750;51.636;4.948;2024-02-26T03:34:34;100037.22;;;11.75;64.51
59873;BME280;50750;51.636;4.948;2024-02-26T03:37:01;100041.63;;;11.75;64.49
59873;BME280;50750;51.636;4.948;2024-02-26T03:39:29;100044.45;;;11.75;64.45
59873;BME280;50750;51.636;4.948;2024-02-26T03:41:57;100040.80;;;11.74;64.63
59873;BME280;50750;51.636;4.948;2024-02-26T03:44:25;100039.38;;;11.74;64.39
59873;BME280;50750;51.636;4.948;2024-02-26T03:46:52;100043.40;;;11.74;64.36
59873;BME280;50750;51.636;4.948;2024-02-26T03:49:20;100042.86;;;11.75;64.43
59873;BME280;50750;51.636;4.948;2024-02-26T03:51:49;100044.25;;;11.75;64.48
59873;BME280;50750;51.636;4.948;2024-02-26T03:54:16;100047.02;;;11.76;64.35
59873;BME280;50750;51.636;4.948;2024-02-26T03:56:44;100050.20;;;11.75;64.49
59873;BME280;50750;51.636;4.948;2024-02-26T03:59:12;100050.56;;;11.75;64.44
59873;BME280;50750;51.636;4.948;2024-02-26T04:01:44;100053.40;;;11.75;64.45
59873;BME280;50750;51.636;4.948;2024-02-26T04:04:12;100057.07;;;11.75;64.41
59873;BME280;50750;51.636;4.948;2024-02-26T04:06:39;100055.16;;;11.74;64.55
59873;BME280;50750;51.636;4.948;2024-02-26T04:09:07;100053.45;;;11.73;64.44
59873;BME280;50750;51.636;4.948;2024-02-26T04:11:35;100052.61;;;11.72;64.32
59873;BME280;50750;51.636;4.948;2024-02-26T04:14:03;100048.58;;;11.72;64.41
59873;BME280;50750;51.636;4.948;2024-02-26T04:16:33;100041.45;;;11.71;64.46
59873;BME280;50750;51.636;4.948;2024-02-26T04:19:00;100041.98;;;11.71;64.46
59873;BME280;50750;51.636;4.948;2024-02-26T04:21:28;100042.75;;;11.69;64.65
59873;BME280;50750;51.636;4.948;2024-02-26T04:23:55;100047.46;;;11.70;64.36
59873;BME280;50750;51.636;4.948;2024-02-26T04:26:23;100046.39;;;11.70;64.31
59873;BME280;50750;51.636;4.948;2024-02-26T04:28:51;100050.05;;;11.71;64.32
59873;BME280;50750;51.636;4.948;2024-02-26T04:31:20;100050.73;;;11.71;64.64
59873;BME280;50750;51.636;4.948;2024-02-26T04:33:47;100058.80;;;11.71;64.56
59873;BME280;50750;51.636;4.948;2024-02-26T04:36:15;100060.91;;;11.71;64.38
59873;BME280;50750;51.636;4.948;2024-02-26T04:38:43;100064.58;;;11.72;64.29
59873;BME280;50750;51.636;4.948;2024-02-26T04:41:11;100065.98;;;11.71;64.57
59873;BME280;50750;51.636;4.948;2024-02-26T04:43:40;100065.98;;;11.71;64.30
59873;BME280;50750;51.636;4.948;2024-02-26T04:46:08;100073.49;;;11.72;64.45
59873;BME280;50750;51.636;4.948;2024-02-26T04:48:36;100075.83;;;11.71;64.48
59873;BME280;50750;51.636;4.948;2024-02-26T04:51:05;100078.64;;;11.70;64.33
59873;BME280;50750;51.636;4.948;2024-02-26T04:53:33;100078.31;;;11.70;64.49
59873;BME280;50750;51.636;4.948;2024-02-26T04:56:01;100082.20;;;11.69;64.42
59873;BME280;50750;51.636;4.948;2024-02-26T04:58:28;100087.16;;;11.68;64.47
59873;BME280;50750;51.636;4.948;2024-02-26T05:00:56;100083.84;;;11.68;64.31
59873;BME280;50750;51.636;4.948;2024-02-26T05:03:23;100088.37;;;11.69;64.61
59873;BME280;50750;51.636;4.948;2024-02-26T05:05:51;100089.60;;;11.69;64.38
59873;BME280;50750;51.636;4.948;2024-02-26T05:08:19;100090.12;;;11.69;64.47
59873;BME280;50750;51.636;4.948;2024-02-26T05:10:47;100088.18;;;11.69;64.44
59873;BME280;50750;51.636;4.948;2024-02-26T05:13:14;100090.44;;;11.69;64.38
59873;BME280;50750;51.636;4.948;2024-02-26T05:15:44;100089.52;;;11.70;64.34
59873;BME280;50750;51.636;4.948;2024-02-26T05:18:16;100091.98;;;11.70;64.54
59873;BME280;50750;51.636;4.948;2024-02-26T05:20:43;100095.67;;;11.70;64.30
59873;BME280;50750;51.636;4.948;2024-02-26T05:23:11;100102.69;;;11.70;64.42
59873;BME280;50750;51.636;4.948;2024-02-26T05:25:40;100099.34;;;11.70;64.35
59873;BME280;50750;51.636;4.948;2024-02-26T05:28:08;100101.32;;;11.70;64.42
59873;BME280;50750;51.636;4.948;2024-02-26T05:30:36;100104.67;;;11.69;64.27
59873;BME280;50750;51.636;4.948;2024-02-26T05:33:07;100106.10;;;11.69;64.56
59873;BME280;50750;51.636;4.948;2024-02-26T05:35:34;100105.63;;;11.67;64.37
59873;BME280;50750;51.636;4.948;2024-02-26T05:38:02;100105.66;;;11.67;64.43
59873;BME280;50750;51.636;4.948;2024-02-26T05:40:30;100110.75;;;11.67;64.57
59873;BME280;50750;51.636;4.948;2024-02-26T05:42:58;100122.13;;;11.67;64.39
59873;BME280;50750;51.636;4.948;2024-02-26T05:45:25;100123.15;;;11.67;64.40
59873;BME280;50750;51.636;4.948;2024-02-26T05:47:53;100123.98;;;11.68;64.31
59873;BME280;50750;51.636;4.948;2024-02-26T05:50:21;100124.69;;;11.69;64.48
59873;BME280;50750;51.636;4.948;2024-02-26T05:52:48;100127.66;;;11.69;64.37
59873;BME280;50750;51.636;4.948;2024-02-26T05:55:16;100134.70;;;11.68;64.24
59873;BME280;50750;51.636;4.948;2024-02-26T05:57:44;100137.48;;;11.69;64.34
59873;BME280;50750;51.636;4.948;2024-02-26T06:00:13;100135.39;;;11.69;64.34
59873;BME280;50750;51.636;4.948;2024-02-26T06:02:40;100140.48;;;11.68;64.16
59873;BME280;50750;51.636;4.948;2024-02-26T06:05:09;100139.98;;;11.68;64.32
59873;BME280;50750;51.636;4.948;2024-02-26T06:07:37;100140.23;;;11.66;64.39
59873;BME280;50750;51.636;4.948;2024-02-26T06:10:07;100149.71;;;11.66;64.24
59873;BME280;50750;51.636;4.948;2024-02-26T06:12:36;100153.61;;;11.65;64.28
59873;BME280;50750;51.636;4.948;2024-02-26T06:15:05;100154.34;;;11.65;64.20
59873;BME280;50750;51.636;4.948;2024-02-26T06:17:33;100155.45;;;11.64;64.41
59873;BME280;50750;51.636;4.948;2024-02-26T06:20:01;100163.17;;;11.63;64.22
59873;BME280;50750;51.636;4.948;2024-02-26T06:22:31;100171.27;;;11.62;64.15
59873;BME280;50750;51.636;4.948;2024-02-26T06:24:59;100175.13;;;11.62;64.46
59873;BME280;50750;51.636;4.948;2024-02-26T06:27:26;100179.14;;;11.63;64.25
59873;BME280;50750;51.636;4.948;2024-02-26T06:29:54;100178.79;;;11.63;64.35
59873;BME280;50750;51.636;4.948;2024-02-26T06:32:22;100185.42;;;11.64;64.34
59873;BME280;50750;51.636;4.948;2024-02-26T06:34:50;100190.85;;;11.64;64.21
59873;BME280;50750;51.636;4.948;2024-02-26T06:37:17;100195.23;;;11.64;64.37
59873;BME280;50750;51.636;4.948;2024-02-26T06:39:45;100194.14;;;11.65;64.38
59873;BME280;50750;51.636;4.948;2024-02-26T06:42:13;100197.98;;;11.65;64.31
59873;BME280;50750;51.636;4.948;2024-02-26T06:44:40;100195.16;;;11.65;64.18
59873;BME280;50750;51.636;4.948;2024-02-26T06:47:08;100194.48;;;11.65;64.23
59873;BME280;50750;51.636;4.948;2024-02-26T06:49:35;100202.39;;;11.65;64.15
59873;BME280;50750;51.636;4.948;2024-02-26T06:52:04;100199.63;;;11.64;64.26
59873;BME280;50750;51.636;4.948;2024-02-26T06:54:32;100203.33;;;11.63;64.27
59873;BME280;50750;51.636;4.948;2024-02-26T06:57:00;100209.66;;;11.63;64.12
59873;BME280;50750;51.636;4.948;2024-02-26T06:59:28;100210.05;;;11.62;64.32
59873;BME280;50750;51.636;4.948;2024-02-26T07:01:55;100209.25;;;11.60;64.48
59873;BME280;50750;51.636;4.948;2024-02-26T07:04:23;100211.38;;;11.60;64.34
59873;BME280;50750;51.636;4.948;2024-02-26T07:06:50;100215.23;;;11.60;64.34
59873;BME280;50750;51.636;4.948;2024-02-26T07:09:18;100216.95;;;11.60;64.31
59873;BME280;50750;51.636;4.948;2024-02-26T07:11:46;100223.42;;;11.61;64.31
59873;BME280;50750;51.636;4.948;2024-02-26T07:14:13;100230.05;;;11.62;64.34
59873;BME280;50750;51.636;4.948;2024-02-26T07:16:41;100233.55;;;11.62;64.16
59873;BME280;50750;51.636;4.948;2024-02-26T07:19:09;100236.16;;;11.62;64.35
59873;BME280;50750;51.636;4.948;2024-02-26T07:21:36;100246.84;;;11.63;64.31
59873;BME280;50750;51.636;4.948;2024-02-26T07:24:05;100250.35;;;11.62;64.29
59873;BME280;50750;51.636;4.948;2024-02-26T07:26:33;100254.74;;;11.62;64.32
59873;BME280;50750;51.636;4.948;2024-02-26T07:29:01;100256.70;;;11.62;64.29
59873;BME280;50750;51.636;4.948;2024-02-26T07:31:29;100260.19;;;11.62;64.19
59873;BME280;50750;51.636;4.948;2024-02-26T07:33:56;100263.23;;;11.61;64.11
59873;BME280;50750;51.636;4.948;2024-02-26T07:36:24;100263.58;;;11.61;64.26
59873;BME280;50750;51.636;4.948;2024-02-26T07:38:52;100266.40;;;11.61;64.25
59873;BME280;50750;51.636;4.948;2024-02-26T07:41:21;100269.27;;;11.59;64.28
59873;BME280;50750;51.636;4.948;2024-02-26T07:43:48;100274.73;;;11.59;64.10
59873;BME280;50750;51.636;4.948;2024-02-26T07:46:16;100276.68;;;11.58;64.33
59873;BME280;50750;51.636;4.948;2024-02-26T07:48:44;100281.42;;;11.58;64.22
59873;BME280;50750;51.636;4.948;2024-02-26T07:51:19;100282.81;;;11.58;64.31
59873;BME280;50750;51.636;4.948;2024-02-26T07:53:47;100286.42;;;11.60;64.22
59873;BME280;50750;51.636;4.948;2024-02-26T07:56:14;100291.88;;;11.59;64.16
59873;BME280;50750;51.636;4.948;2024-02-26T07:58:42;100291.30;;;11.61;64.11
59873;BME280;50750;51.636;4.948;2024-02-26T08:01:13;100292.37;;;11.60;64.33
59873;BME280;50750;51.636;4.948;2024-02-26T08:03:41;100298.30;;;11.61;64.11
59873;BME280;50750;51.636;4.948;2024-02-26T08:06:09;100301.82;;;11.61;64.16
59873;BME280;50750;51.636;4.948;2024-02-26T08:08:37;100304.12;;;11.60;64.32
59873;BME280;50750;51.636;4.948;2024-02-26T08:11:04;100305.86;;;11.60;64.31
59873;BME280;50750;51.636;4.948;2024-02-26T08:13:32;100313.79;;;11.60;64.25
59873;BME280;50750;51.636;4.948;2024-02-26T08:16:00;100314.34;;;11.59;64.20
59873;BME280;50750;51.636;4.948;2024-02-26T08:18:27;100317.70;;;11.59;64.09
59873;BME280;50750;51.636;4.948;2024-02-26T08:20:55;100319.28;;;11.59;64.37
59873;BME280;50750;51.636;4.948;2024-02-26T08:23:23;100319.65;;;11.58;64.27
59873;BME280;50750;51.636;4.948;2024-02-26T08:25:50;100323.00;;;11.57;64.46
59873;BME280;50750;51.636;4.948;2024-02-26T08:28:18;100336.67;;;11.58;64.36
59873;BME280;50750;51.636;4.948;2024-02-26T08:30:46;100338.42;;;11.58;64.27
59873;BME280;50750;51.636;4.948;2024-02-26T08:33:14;100341.02;;;11.58;64.14
59873;BME280;50750;51.636;4.948;2024-02-26T08:35:42;100346.11;;;11.58;64.19
59873;BME280;50750;51.636;4.948;2024-02-26T08:38:10;100345.73;;;11.59;64.15
59873;BME280;50750;51.636;4.948;2024-02-26T08:40:38;100351.34;;;11.59;64.28
59873;BME280;50750;51.636;4.948;2024-02-26T08:43:05;100349.03;;;11.60;64.23
59873;BME280;50750;51.636;4.948;2024-02-26T08:45:33;100355.52;;;11.59;64.00
59873;BME280;50750;51.636;4.948;2024-02-26T08:48:01;100354.13;;;11.60;64.30
59873;BME280;50750;51.636;4.948;2024-02-26T08:50:28;100353.95;;;11.60;64.20
59873;BME280;50750;51.636;4.948;2024-02-26T08:52:56;100368.33;;;11.60;64.27
59873;BME280;50750;51.636;4.948;2024-02-26T08:55:24;100365.73;;;11.59;64.28
59873;BME280;50750;51.636;4.948;2024-02-26T08:57:52;100366.45;;;11.58;64.19
59873;BME280;50750;51.636;4.948;2024-02-26T09:00:20;100372.10;;;11.57;64.28
59873;BME280;50750;51.636;4.948;2024-02-26T09:02:48;100373.53;;;11.57;64.18
59873;BME280;50750;51.636;4.948;2024-02-26T09:05:16;100380.21;;;11.56;64.21
59873;BME280;50750;51.636;4.948;2024-02-26T09:07:44;100386.02;;;11.56;64.31
59873;BME280;50750;51.636;4.948;2024-02-26T09:10:13;100386.02;;;11.56;64.30
59873;BME280;50750;51.636;4.948;2024-02-26T09:12:41;100388.45;;;11.57;64.38
59873;BME280;50750;51.636;4.948;2024-02-26T09:15:10;100388.59;;;11.57;64.17
59873;BME280;50750;51.636;4.948;2024-02-26T09:17:38;100394.20;;;11.58;64.56
59873;BME280;50750;51.636;4.948;2024-02-26T09:20:08;100402.96;;;11.57;64.39
59873;BME280;50750;51.636;4.948;2024-02-26T09:22:36;100400.82;;;11.59;64.45
59873;BME280;50750;51.636;4.948;2024-02-26T09:25:07;100403.63;;;11.58;64.36
59873;BME280;50750;51.636;4.948;2024-02-26T09:27:34;100410.99;;;11.59;64.20
59873;BME280;50750;51.636;4.948;2024-02-26T09:30:03;100412.91;;;11.59;64.33
59873;BME280;50750;51.636;4.948;2024-02-26T09:32:32;100418.73;;;11.58;64.32
59873;BME280;50750;51.636;4.948;2024-02-26T09:34:59;100421.02;;;11.58;64.31
59873;BME280;50750;51.636;4.948;2024-02-26T09:37:27;100422.27;;;11.57;64.20
59873;BME280;50750;51.636;4.948;2024-02-26T09:39:55;100430.00;;;11.57;64.27
59873;BME280;50750;51.636;4.948;2024-02-26T09:42:26;100432.48;;;11.56;64.49
59873;BME280;50750;51.636;4.948;2024-02-26T09:44:55;100440.20;;;11.56;64.34
59873;BME280;50750;51.636;4.948;2024-02-26T09:47:24;100446.02;;;11.55;64.34
59873;BME280;50750;51.636;4.948;2024-02-26T09:49:52;100453.55;;;11.56;64.27
59873;BME280;50750;51.636;4.948;2024-02-26T09:52:20;100453.35;;;11.56;64.37
59873;BME280;50750;51.636;4.948;2024-02-26T09:54:49;100455.27;;;11.56;64.41
59873;BME280;50750;51.636;4.948;2024-02-26T09:57:17;100459.13;;;11.56;64.38
59873;BME280;50750;51.636;4.948;2024-02-26T09:59:47;100465.73;;;11.57;64.30
59873;BME280;50750;51.636;4.948;2024-02-26T10:02:16;100469.95;;;11.57;64.14
59873;BME280;50750;51.636;4.948;2024-02-26T10:04:47;100473.80;;;11.58;64.41
59873;BME280;50750;51.636;4.948;2024-02-26T10:07:18;100478.19;;;11.57;64.36
59873;BME280;50750;51.636;4.948;2024-02-26T10:09:45;100482.39;;;11.58;64.43
59873;BME280;50750;51.636;4.948;2024-02-26T10:12:13;100485.39;;;11.57;64.47
59873;BME280;50750;51.636;4.948;2024-02-26T10:14:44;100490.33;;;11.57;64.40
59873;BME280;50750;51.636;4.948;2024-02-26T10:17:12;100497.90;;;11.56;64.52
59873;BME280;50750;51.636;4.948;2024-02-26T10:19:39;100497.91;;;11.56;64.53
59873;BME280;50750;51.636;4.948;2024-02-26T10:22:07;100503.01;;;11.55;64.49
59873;BME280;50750;51.636;4.948;2024-02-26T10:24:35;100504.10;;;11.54;64.45
59873;BME280;50750;51.636;4.948;2024-02-26T10:27:04;100512.36;;;11.54;64.43
59873;BME280;50750;51.636;4.948;2024-02-26T10:29:32;100519.20;;;11.54;64.36
59873;BME280;50750;51.636;4.948;2024-02-26T10:31:59;100521.98;;;11.54;64.52
59873;BME280;50750;51.636;4.948;2024-02-26T10:34:28;100527.41;;;11.55;64.50
59873;BME280;50750;51.636;4.948;2024-02-26T10:36:56;100536.51;;;11.55;64.42
59873;BME280;50750;51.636;4.948;2024-02-26T10:39:23;100535.80;;;11.55;64.32
59873;BME280;50750;51.636;4.948;2024-02-26T10:41:51;100537.73;;;11.55;64.43
59873;BME280;50750;51.636;4.948;2024-02-26T10:44:19;100540.02;;;11.55;64.53
59873;BME280;50750;51.636;4.948;2024-02-26T10:46:48;100549.81;;;11.55;64.34
59873;BME280;50750;51.636;4.948;2024-02-26T10:49:16;100556.65;;;11.55;64.51
59873;BME280;50750;51.636;4.948;2024-02-26T10:51:46;100563.86;;;11.55;64.46
59873;BME280;50750;51.636;4.948;2024-02-26T10:54:17;100566.87;;;11.54;64.60
59873;BME280;50750;51.636;4.948;2024-02-26T10:56:46;100570.92;;;11.54;64.52
59873;BME280;50750;51.636;4.948;2024-02-26T10:59:16;100569.19;;;11.54;64.55
59873;BME280;50750;51.636;4.948;2024-02-26T11:01:48;100575.17;;;11.53;64.70
59873;BME280;50750;51.636;4.948;2024-02-26T11:04:16;100580.10;;;11.53;64.50
59873;BME280;50750;51.636;4.948;2024-02-26T11:06:45;100581.86;;;11.52;64.64
59873;BME280;50750;51.636;4.948;2024-02-26T11:09:15;100587.82;;;11.53;64.57
59873;BME280;50750;51.636;4.948;2024-02-26T11:11:43;100589.89;;;11.53;64.48
59873;BME280;50750;51.636;4.948;2024-02-26T11:14:11;100592.52;;;11.53;64.53
59873;BME280;50750;51.636;4.948;2024-02-26T11:16:40;100591.45;;;11.54;64.47
59873;BME280;50750;51.636;4.948;2024-02-26T11:19:10;100599.64;;;11.55;64.46
59873;BME280;50750;51.636;4.948;2024-02-26T11:21:38;100597.00;;;11.55;64.45
59873;BME280;50750;51.636;4.948;2024-02-26T11:24:11;100607.17;;;11.55;64.51
59873;BME280;50750;51.636;4.948;2024-02-26T11:26:48;100601.73;;;11.55;64.57
59873;BME280;50750;51.636;4.948;2024-02-26T11:29:21;100604.71;;;11.55;64.63
59873;BME280;50750;51.636;4.948;2024-02-26T11:31:51;100603.84;;;11.55;64.56
59873;BME280;50750;51.636;4.948;2024-02-26T11:34:20;100603.51;;;11.55;64.57
59873;BME280;50750;51.636;4.948;2024-02-26T11:36:47;100607.92;;;11.54;64.50
59873;BME280;50750;51.636;4.948;2024-02-26T11:39:15;100609.67;;;11.54;64.48
59873;BME280;50750;51.636;4.948;2024-02-26T11:41:43;100609.70;;;11.53;64.51
59873;BME280;50750;51.636;4.948;2024-02-26T11:44:11;100611.30;;;11.53;64.64
59873;BME280;50750;51.636;4.948;2024-02-26T11:46:41;100614.30;;;11.53;64.39
59873;BME280;50750;51.636;4.948;2024-02-26T11:49:30;100613.40;;;11.53;64.43
59873;BME280;50750;51.636;4.948;2024-02-26T11:51:58;100616.02;;;11.54;64.50
59873;BME280;50750;51.636;4.948;2024-02-26T11:54:46;100615.82;;;11.54;64.58
59873;BME280;50750;51.636;4.948;2024-02-26T11:57:24;100617.04;;;11.54;64.32
59873;BME280;50750;51.636;4.948;2024-02-26T11:59:52;100615.13;;;11.54;64.47
59873;BME280;50750;51.636;4.948;2024-02-26T12:02:46;100620.91;;;11.54;64.53
59873;BME280;50750;51.636;4.948;2024-02-26T12:05:16;100620.39;;;11.54;64.57
59873;BME280;50750;51.636;4.948;2024-02-26T12:07:47;100626.17;;;11.54;64.51
59873;BME280;50750;51.636;4.948;2024-02-26T12:10:22;100623.05;;;11.53;64.63
59873;BME280;50750;51.636;4.948;2024-02-26T12:12:55;100633.23;;;11.53;64.53
59873;BME280;50750;51.636;4.948;2024-02-26T12:15:31;100630.80;;;11.52;64.65
59873;BME280;50750;51.636;4.948;2024-02-26T12:18:02;100641.52;;;11.51;64.72
59873;BME280;50750;51.636;4.948;2024-02-26T12:20:30;100641.52;;;11.51;64.61
59873;BME280;50750;51.636;4.948;2024-02-26T12:22:58;100647.17;;;11.50;64.77
59873;BME280;50750;51.636;4.948;2024-02-26T12:25:28;100648.21;;;11.50;64.70
59873;BME280;50750;51.636;4.948;2024-02-26T12:27:55;100651.89;;;11.50;64.55
59873;BME280;50750;51.636;4.948;2024-02-26T12:30:24;100659.27;;;11.50;64.78
59873;BME280;50750;51.636;4.948;2024-02-26T12:32:53;100667.66;;;11.50;64.64
59873;BME280;50750;51.636;4.948;2024-02-26T12:35:24;100670.11;;;11.51;64.78
59873;BME280;50750;51.636;4.948;2024-02-26T12:37:52;100673.98;;;11.51;64.59
59873;BME280;50750;51.636;4.948;2024-02-26T12:40:21;100677.46;;;11.51;64.59
59873;BME280;50750;51.636;4.948;2024-02-26T12:42:49;100680.97;;;11.51;64.65
59873;BME280;50750;51.636;4.948;2024-02-26T12:45:17;100686.27;;;11.50;64.63
59873;BME280;50750;51.636;4.948;2024-02-26T12:47:45;100694.49;;;11.51;64.59
59873;BME280;50750;51.636;4.948;2024-02-26T12:50:13;100698.72;;;11.50;64.67
59873;BME280;50750;51.636;4.948;2024-02-26T12:52:43;100698.72;;;11.50;64.70
59873;BME280;50750;51.636;4.948;2024-02-26T12:55:14;100702.23;;;11.50;64.71
59873;BME280;50750;51.636;4.948;2024-02-26T12:57:42;100710.13;;;11.50;64.80
59873;BME280;50750;51.636;4.948;2024-02-26T13:00:14;100713.29;;;11.50;64.69